Airfield :
LOGIN :

Register | Disclaimer

   EN    FR    IT 

 










Legend :    VFR   Marginal VFR   IFR   Intensive IFR   Very Intensive IFR
Visi :
Ceiling :
>= 8 km
>= 3000ft
5 to 8 km
1000 to 3000 ft
1500m to 5 km
500 to 1000 ft
800 to 1500m
200 to 500 ft
< 800m
< 200 ft
Symbols :   Thunderstorms  Fog  Heavy snow  Heavy precipitations  Wind > 20 kt
SIGMETs :     Misc.  Thunderstorms  Icing  Turbulence  Mountain Waves  Volcanic Ashes






- Airport Elevation : 56 ft
- IATA code : ILY


EGPI - Islay

CURRENT METAR :
  • 211550Z 10010KT 060V130 9999 FEW027 SCT037 06/02 Q1002

EXPIRED METARs :
  • 211520Z 12013KT 080V150 9999 FEW030 BKN035 07/02 Q1002
  • 211450Z 12015KT 080V140 9999 BKN030 BKN038 07/02 Q1002
  • 211420Z 12014KT 070V150 9999 BKN028 SCT038 07/02 Q1002
  • 211350Z 11009KT 070V140 9999 SCT028 07/02 Q1003
  • 211320Z 12015KT 9999 FEW030 07/01 Q1003

TAF TAF EGPI
Valid from the 21 at 15:00 until the 21 at 19:00 UTC


211401Z 2115/2119 11012KT 9999 SCT025
TEMPO 2115/2119 12018G28KT



MET'MAP, your aeronautical weather chart ! - Copyright ORBIFLY December 2007 - Disclaimer

ORBIFLY MET'MAP TEAM :

Programming & Development : Alexandra Zaïnal
Concept & Development : Baudouin d'Aumeries
Co-Development & Prog : Marc-Olivier Méhu
Technical & hardware support : Manuel Goepfert

Contact : metmap@orbifly.com




SOURCES & CREDITS :

   NOAA